Time;durP1;ratioP1;P1;durP2;ratioP2;P2;SDS_P1;SDS_P2;PMS_P1;PMS_P2;Temp;Humidity;BMP_temperature;BMP_pressure;BME280_temperature;BME280_humidity;BME280_pressure;Samples;Min_cycle;Max_cycle;Signal;HPM_P1;HPM_P2
2022/10/30 00:00:59;;;;;;;17.88;8.88;;;;;;;16.33;78.44;100969.78;4149403;28;20042;-67
2022/10/30 00:03:01;;;;;;;14.77;8.32;;;;;;;16.30;78.59;100975.03;4148169;28;20145;-67
2022/10/30 00:05:06;;;;;;;14.40;7.63;;;;;;;16.30;78.27;100981.13;4147725;28;20050;-67
2022/10/30 00:07:08;;;;;;;16.58;7.38;;;;;;;16.36;78.27;100980.25;4149347;28;20076;-67
2022/10/30 00:09:13;;;;;;;19.55;8.55;;;;;;;16.43;78.12;100975.88;4148615;28;20038;-67
2022/10/30 00:11:16;;;;;;;18.98;7.85;;;;;;;16.46;78.07;100973.25;4149260;28;20500;-67
2022/10/30 00:13:20;;;;;;;15.65;7.15;;;;;;;16.51;77.87;100968.84;4147549;28;20120;-66
2022/10/30 00:15:22;;;;;;;15.27;6.88;;;;;;;16.54;77.64;100964.50;4148427;28;20041;-67
2022/10/30 00:17:25;;;;;;;16.48;8.23;;;;;;;16.55;77.65;100960.97;4149217;28;20042;-67
2022/10/30 00:19:28;;;;;;;19.02;9.20;;;;;;;16.53;77.83;100961.88;4149256;28;20041;-67
2022/10/30 00:21:31;;;;;;;15.40;7.60;;;;;;;16.49;77.96;100965.38;4149097;28;20065;-67
2022/10/30 00:23:34;;;;;;;15.07;6.32;;;;;;;16.46;77.98;100961.00;4146633;28;20422;-67
2022/10/30 00:25:38;;;;;;;20.45;9.00;;;;;;;16.44;78.13;100962.75;4146988;28;20065;-67
2022/10/30 00:27:41;;;;;;;12.70;6.50;;;;;;;16.43;78.42;100971.50;4149054;28;20520;-67
2022/10/30 00:29:43;;;;;;;17.95;8.05;;;;;;;16.43;77.83;100961.00;4147656;28;20046;-67
2022/10/30 00:31:46;;;;;;;16.05;6.75;;;;;;;16.44;78.22;100961.88;4147749;28;20042;-67
2022/10/30 00:33:50;;;;;;;12.25;6.78;;;;;;;16.42;78.23;100969.75;4147392;28;20048;-67
2022/10/30 00:35:53;;;;;;;12.93;6.90;;;;;;;16.43;78.22;100962.75;4148937;28;20076;-67
2022/10/30 00:37:55;;;;;;;18.88;8.20;;;;;;;16.42;78.24;100954.00;4130530;28;20046;-67
2022/10/30 00:39:59;;;;;;;18.00;7.28;;;;;;;16.42;78.08;100954.00;4147515;28;20125;-67
2022/10/30 00:42:03;;;;;;;17.83;7.65;;;;;;;16.45;77.97;100947.88;4163811;28;20038;-67
2022/10/30 00:44:35;;;;;;;18.77;9.63;;;;;;;16.49;77.65;100947.00;4147203;28;20049;-67
2022/10/30 00:46:40;;;;;;;18.02;7.65;;;;;;;16.45;77.72;100948.75;4147654;28;20030;-67
2022/10/30 00:48:45;;;;;;;15.45;6.90;;;;;;;16.45;78.04;100947.88;4147531;28;20038;-67
2022/10/30 00:50:48;;;;;;;16.77;7.30;;;;;;;16.39;78.19;100949.63;4148615;28;20045;-67
2022/10/30 00:52:54;;;;;;;14.80;8.38;;;;;;;16.37;78.64;100948.78;4145612;28;20492;-67
2022/10/30 00:55:03;;;;;;;20.50;7.70;;;;;;;16.40;78.55;100948.75;4146977;28;20389;-67
2022/10/30 00:57:09;;;;;;;11.25;6.65;;;;;;;16.42;78.65;100953.16;4148622;28;20042;-67
2022/10/30 00:59:15;;;;;;;17.25;7.20;;;;;;;16.48;78.20;100953.97;4163777;28;20045;-67
2022/10/30 01:01:22;;;;;;;13.85;6.57;;;;;;;16.53;77.89;100948.75;4147306;28;20558;-67
2022/10/30 01:03:26;;;;;;;15.18;7.00;;;;;;;16.55;77.92;100949.59;4163321;28;20590;-67
2022/10/30 01:05:31;;;;;;;19.65;8.25;;;;;;;16.57;77.98;100950.47;4146251;28;20095;-67
2022/10/30 01:07:34;;;;;;;18.20;7.15;;;;;;;16.58;77.91;100949.59;4148275;28;20045;-67
2022/10/30 01:09:37;;;;;;;16.83;6.30;;;;;;;16.58;77.75;100945.22;4146928;28;20061;-67
2022/10/30 01:11:40;;;;;;;15.98;6.55;;;;;;;16.56;77.47;100938.25;4147166;28;20100;-67
2022/10/30 01:13:48;;;;;;;18.80;8.07;;;;;;;16.52;77.81;100950.47;4146600;28;20045;-67
2022/10/30 01:16:07;;;;;;;18.80;7.10;;;;;;;16.52;77.80;100944.38;4147173;28;20037;-66
2022/10/30 01:18:34;;;;;;;11.35;6.95;;;;;;;16.51;77.81;100945.25;4130816;28;20046;-67
2022/10/30 01:21:11;;;;;;;13.52;6.82;;;;;;;16.53;77.87;100938.25;4146437;28;20100;-67
2022/10/30 01:23:27;;;;;;;17.60;8.00;;;;;;;16.53;77.82;100947.00;4158277;28;20402;-67
2022/10/30 01:25:47;;;;;;;16.00;6.70;;;;;;;16.53;77.99;100940.88;4163291;28;20045;-67
2022/10/30 01:28:07;;;;;;;16.17;6.97;;;;;;;16.53;77.87;100938.25;4146975;28;20076;-67
2022/10/30 01:30:25;;;;;;;22.10;7.80;;;;;;;16.53;77.95;100935.63;4146979;28;20519;-67
2022/10/30 01:32:42;;;;;;;16.40;8.23;;;;;;;16.53;77.95;100935.63;4146991;28;20064;-67
2022/10/30 01:34:53;;;;;;;15.77;6.90;;;;;;;16.51;77.96;100932.13;4145631;28;20546;-66
2022/10/30 01:37:03;;;;;;;12.68;6.65;;;;;;;16.49;77.99;100929.50;4156102;28;20037;-67
2022/10/30 01:39:12;;;;;;;13.20;6.85;;;;;;;16.46;78.32;100934.75;4146748;28;20060;-67
2022/10/30 01:41:16;;;;;;;13.63;7.20;;;;;;;16.43;78.29;100926.91;4148001;28;20484;-66
2022/10/30 01:43:20;;;;;;;19.58;7.30;;;;;;;16.39;78.47;100933.88;4145653;28;20045;-66
2022/10/30 01:45:49;;;;;;;16.98;7.20;;;;;;;16.39;78.35;100933.88;4146602;28;20491;-66
2022/10/30 01:48:15;;;;;;;14.60;7.07;;;;;;;16.38;78.55;100931.25;4146851;28;20042;-67
2022/10/30 01:50:33;;;;;;;17.77;7.28;;;;;;;16.36;78.68;100933.03;4146753;28;20061;-66
2022/10/30 01:52:41;;;;;;;12.18;6.55;;;;;;;16.34;78.58;100933.03;4145611;28;20069;-67
2022/10/30 01:54:49;;;;;;;13.73;7.15;;;;;;;16.34;78.21;100933.03;4146147;28;20045;-67
2022/10/30 01:57:04;;;;;;;13.38;6.35;;;;;;;16.30;78.41;100930.44;4130382;28;20049;-67
2022/10/30 01:59:14;;;;;;;20.05;6.90;;;;;;;16.26;78.52;100926.91;4146675;28;20037;-67
2022/10/30 02:01:19;;;;;;;13.20;7.30;;;;;;;16.23;78.51;100926.94;4147821;28;20046;-67
2022/10/30 02:03:22;;;;;;;18.13;8.13;;;;;;;16.21;78.55;100929.56;4146245;28;20116;-67
2022/10/30 02:05:31;;;;;;;11.95;6.28;;;;;;;16.22;78.70;100930.41;4162940;28;20038;-67
2022/10/30 02:07:35;;;;;;;14.07;6.80;;;;;;;16.17;78.90;100929.56;4144751;28;20565;-67
2022/10/30 02:09:41;;;;;;;18.00;7.75;;;;;;;16.18;78.52;100921.69;4146453;28;20072;-67
2022/10/30 02:11:46;;;;;;;17.48;7.20;;;;;;;16.18;78.75;100916.44;4146658;28;20073;-67
2022/10/30 02:13:49;;;;;;;14.07;7.32;;;;;;;16.19;78.38;100919.94;4129738;28;20523;-67
2022/10/30 02:15:52;;;;;;;14.40;7.18;;;;;;;16.17;78.49;100916.44;4146590;28;20585;-67
2022/10/30 02:17:56;;;;;;;18.65;6.93;;;;;;;16.17;78.82;100921.69;4146499;28;20467;-66
2022/10/30 02:19:59;;;;;;;17.92;8.20;;;;;;;16.13;78.64;100917.31;4145816;28;20057;-66
2022/10/30 02:22:04;;;;;;;19.42;7.57;;;;;;;16.15;78.83;100915.56;4156319;28;20450;-67
2022/10/30 02:24:07;;;;;;;18.60;8.00;;;;;;;16.12;78.71;100924.34;4146263;28;20598;-67
2022/10/30 02:26:10;;;;;;;13.73;6.10;;;;;;;16.12;78.46;100918.19;4146454;28;20519;-66
2022/10/30 02:28:13;;;;;;;17.45;7.63;;;;;;;16.10;78.89;100919.97;4146311;28;20038;-66
2022/10/30 02:30:16;;;;;;;11.57;5.85;;;;;;;16.04;78.75;100920.84;4146398;28;20458;-67
2022/10/30 02:32:19;;;;;;;14.90;6.43;;;;;;;15.98;79.04;100920.84;4130063;28;20050;-67
2022/10/30 02:34:21;;;;;;;18.83;7.03;;;;;;;15.94;78.88;100925.19;4147194;28;20042;-67
2022/10/30 02:36:25;;;;;;;14.70;7.32;;;;;;;15.97;79.05;100926.94;4145489;28;20100;-67
2022/10/30 02:38:31;;;;;;;15.65;6.45;;;;;;;16.00;78.93;100933.09;4147408;28;20042;-66
2022/10/30 02:40:33;;;;;;;14.50;6.03;;;;;;;15.98;78.92;100934.81;4149519;28;20666;-66
2022/10/30 02:42:36;;;;;;;16.15;6.70;;;;;;;15.99;78.82;100939.19;4149466;28;20096;-67
2022/10/30 02:44:39;;;;;;;12.27;6.40;;;;;;;15.99;78.94;100936.56;4148371;28;20030;-67
2022/10/30 02:46:42;;;;;;;15.27;6.72;;;;;;;15.99;78.67;100933.06;4149125;28;20045;-67
2022/10/30 02:48:45;;;;;;;16.85;7.15;;;;;;;15.99;78.51;100931.34;4149389;28;20575;-67
2022/10/30 02:50:48;;;;;;;11.05;6.65;;;;;;;15.99;78.50;100931.34;4132147;28;20039;-66
2022/10/30 02:52:51;;;;;;;16.92;6.13;;;;;;;15.98;78.76;100931.34;4125171;28;20068;-66
2022/10/30 02:54:55;;;;;;;12.40;6.22;;;;;;;15.98;78.48;100926.09;4132639;28;20092;-67
2022/10/30 02:56:58;;;;;;;17.75;7.45;;;;;;;15.97;78.30;100935.69;4149277;28;20034;-66
2022/10/30 02:59:01;;;;;;;20.02;8.63;;;;;;;15.93;78.32;100933.06;4149210;28;20042;-67
2022/10/30 03:01:08;;;;;;;14.05;7.82;;;;;;;15.90;78.59;100933.94;4149223;28;20034;-67
2022/10/30 03:03:11;;;;;;;16.25;8.45;;;;;;;15.83;78.62;100925.22;4149032;28;20510;-66
2022/10/30 03:05:15;;;;;;;24.95;8.98;;;;;;;15.80;78.49;100927.84;4148438;28;20034;-67
2022/10/30 03:07:18;;;;;;;19.88;7.40;;;;;;;15.80;78.52;100924.31;4147741;28;20025;-66
2022/10/30 03:09:21;;;;;;;18.17;6.78;;;;;;;15.78;78.50;100928.66;4150295;28;20579;-66
2022/10/30 03:11:25;;;;;;;14.90;7.65;;;;;;;15.79;78.41;100918.22;4149053;28;20136;-67
2022/10/30 03:13:30;;;;;;;16.63;6.90;;;;;;;15.78;77.99;100923.44;4148503;28;20608;-66
2022/10/30 03:15:33;;;;;;;16.60;6.43;;;;;;;15.75;78.53;100920.81;4165439;28;20388;-67
2022/10/30 03:17:36;;;;;;;17.15;7.20;;;;;;;15.77;78.09;100919.06;4165343;28;20045;-66
2022/10/30 03:19:39;;;;;;;17.67;6.75;;;;;;;15.76;78.39;100922.56;4148237;28;20034;-67
2022/10/30 03:21:43;;;;;;;16.48;8.45;;;;;;;15.70;78.04;100921.69;4148673;28;20130;-67
2022/10/30 03:23:49;;;;;;;16.58;7.10;;;;;;;15.67;78.29;100920.81;4148530;28;20138;-67
2022/10/30 03:25:54;;;;;;;15.38;8.38;;;;;;;15.66;78.72;100924.31;4165106;28;20045;-67
2022/10/30 03:27:58;;;;;;;16.50;7.72;;;;;;;15.67;78.19;100919.06;4148782;28;20038;-66
2022/10/30 03:30:02;;;;;;;13.13;6.55;;;;;;;15.65;78.02;100919.94;4149943;28;20054;-66
2022/10/30 03:32:09;;;;;;;15.50;8.00;;;;;;;15.68;78.30;100912.94;4148746;28;20096;-67
2022/10/30 03:34:19;;;;;;;20.50;8.70;;;;;;;15.66;78.17;100909.44;4147511;28;20041;-67
2022/10/30 03:36:22;;;;;;;12.63;7.68;;;;;;;15.65;78.10;100926.06;4132222;28;20081;-66
2022/10/30 03:38:25;;;;;;;16.05;8.10;;;;;;;15.63;77.90;100919.06;4149814;28;20086;-67
2022/10/30 03:40:28;;;;;;;16.05;7.57;;;;;;;15.63;77.76;100925.16;4148600;28;20072;-67
2022/10/30 03:42:30;;;;;;;15.55;7.80;;;;;;;15.66;77.71;100933.03;4148576;28;20053;-67
2022/10/30 03:44:35;;;;;;;18.73;8.07;;;;;;;15.68;78.09;100927.78;4131844;28;20116;-67
2022/10/30 03:46:38;;;;;;;15.20;6.57;;;;;;;15.67;77.60;100929.53;4132204;28;20077;-67
2022/10/30 03:48:53;;;;;;;;;;;;;;;15.50;78.22;100926.03;4148012;28;20060;-67
2022/10/30 03:50:58;;;;;;;14.32;6.80;;;;;;;15.53;78.50;100933.91;4147191;28;19925;-66
2022/10/30 03:53:02;;;;;;;13.13;6.00;;;;;;;15.51;77.93;100927.78;4148415;28;20081;-66
2022/10/30 03:55:06;;;;;;;15.50;8.18;;;;;;;15.53;77.97;100928.66;4117983;28;20049;-67
2022/10/30 03:57:10;;;;;;;12.68;6.97;;;;;;;15.53;78.45;100928.66;4148278;28;20042;-66
2022/10/30 03:59:40;;;;;;;26.98;8.52;;;;;;;15.52;78.05;100934.75;4148308;28;20436;-67
2022/10/30 04:02:15;;;;;;;17.63;7.35;;;;;;;15.48;78.49;100927.78;4149453;28;20526;-66
2022/10/30 04:04:18;;;;;;;18.60;7.85;;;;;;;15.46;78.59;100930.41;4146809;28;20583;-67
2022/10/30 04:06:21;;;;;;;18.25;7.38;;;;;;;15.48;78.49;100928.66;4144356;28;20038;-67
2022/10/30 04:08:24;;;;;;;17.88;7.40;;;;;;;15.46;78.23;100921.66;4147980;28;20045;-67
2022/10/30 04:10:27;;;;;;;17.65;7.68;;;;;;;15.45;78.13;100922.50;4148161;28;20045;-67
2022/10/30 04:12:32;;;;;;;16.33;7.70;;;;;;;15.43;77.88;100924.28;4148172;28;20042;-67
2022/10/30 04:14:35;;;;;;;20.35;7.45;;;;;;;15.42;78.22;100925.13;4147594;28;20038;-67
2022/10/30 04:16:39;;;;;;;18.85;7.00;;;;;;;15.40;78.00;100922.50;4164394;28;20056;-67
2022/10/30 04:18:42;;;;;;;12.00;6.00;;;;;;;15.35;78.47;100930.38;4148031;28;20048;-67
2022/10/30 04:20:46;;;;;;;21.17;7.78;;;;;;;15.32;78.36;100939.97;4147472;28;20124;-66
2022/10/30 04:22:56;;;;;;;15.63;6.63;;;;;;;15.30;78.01;100937.34;4147978;28;20045;-67
2022/10/30 04:24:59;;;;;;;20.48;7.13;;;;;;;15.29;78.26;100940.84;4147647;28;20093;-66
2022/10/30 04:27:03;;;;;;;17.50;7.43;;;;;;;15.29;78.00;100938.22;4131758;28;20445;-66
2022/10/30 04:29:06;;;;;;;13.43;6.65;;;;;;;15.31;78.38;100940.84;4141836;28;20048;-67
2022/10/30 04:31:09;;;;;;;12.90;6.70;;;;;;;15.30;78.68;100942.59;4147742;28;20049;-67
2022/10/30 04:33:13;;;;;;;12.27;6.45;;;;;;;15.29;77.98;100939.97;4146945;28;20042;-66
2022/10/30 04:35:18;;;;;;;16.90;7.38;;;;;;;15.26;77.95;100939.94;4147526;28;20042;-67
2022/10/30 04:37:21;;;;;;;16.48;6.82;;;;;;;15.22;78.05;100940.84;4147692;28;20499;-67
2022/10/30 04:39:24;;;;;;;15.40;7.10;;;;;;;15.21;78.54;100946.94;4147695;28;20041;-66
2022/10/30 04:41:33;;;;;;;17.45;7.85;;;;;;;15.16;78.58;100933.81;4147677;28;20041;-66
2022/10/30 04:43:41;;;;;;;14.80;7.43;;;;;;;15.17;78.41;100938.16;4147204;28;20042;-67
2022/10/30 04:45:44;;;;;;;13.50;6.38;;;;;;;15.17;78.00;100940.78;4147607;28;20121;-66
2022/10/30 04:47:47;;;;;;;16.00;6.88;;;;;;;15.16;77.87;100939.06;4146843;28;20041;-67
2022/10/30 04:49:52;;;;;;;15.98;8.10;;;;;;;15.15;78.68;100937.31;4155826;28;20458;-67
2022/10/30 04:51:55;;;;;;;15.07;6.18;;;;;;;15.09;77.84;100935.53;4147634;28;20069;-66
2022/10/30 04:53:58;;;;;;;16.00;7.18;;;;;;;15.07;78.40;100928.53;4147085;28;20426;-67
2022/10/30 04:56:04;;;;;;;13.10;6.40;;;;;;;15.05;78.11;100935.53;4163834;28;20064;-67
2022/10/30 04:58:08;;;;;;;13.15;6.88;;;;;;;15.03;78.27;100925.06;4146685;28;20042;-67
2022/10/30 05:00:14;;;;;;;13.40;6.80;;;;;;;15.04;77.83;100928.53;4163656;28;20069;-67
2022/10/30 05:02:18;;;;;;;14.02;6.57;;;;;;;15.00;77.76;100923.28;4146035;28;20049;-66
2022/10/30 05:04:21;;;;;;;12.75;6.30;;;;;;;14.97;77.77;100933.75;4146752;28;20602;-67
2022/10/30 05:06:28;;;;;;;14.77;6.13;;;;;;;14.97;77.89;100941.59;4147182;28;20034;-67
2022/10/30 05:08:32;;;;;;;15.75;6.78;;;;;;;14.95;77.39;100940.75;4130863;28;20038;-67
2022/10/30 05:10:40;;;;;;;15.48;6.32;;;;;;;14.97;77.86;100944.22;4147233;28;20042;-67
2022/10/30 05:12:44;;;;;;;17.33;7.65;;;;;;;14.98;77.97;100938.13;4147199;28;20498;-67
2022/10/30 05:14:47;;;;;;;15.15;7.68;;;;;;;14.98;78.43;100935.50;4146754;28;20554;-67
2022/10/30 05:16:49;;;;;;;19.65;7.03;;;;;;;14.99;77.58;100931.13;4146382;28;20042;-67
2022/10/30 05:18:52;;;;;;;17.60;7.55;;;;;;;14.99;78.20;100932.00;4139207;28;20041;-67
2022/10/30 05:20:56;;;;;;;16.60;7.97;;;;;;;14.99;77.88;100928.53;4148255;28;20053;-67
2022/10/30 05:23:00;;;;;;;14.10;7.20;;;;;;;14.98;78.20;100932.91;4147007;28;20042;-67
2022/10/30 05:25:03;;;;;;;16.52;7.57;;;;;;;14.98;78.38;100924.16;4130405;28;20053;-67
2022/10/30 05:27:06;;;;;;;17.23;8.30;;;;;;;14.95;78.00;100929.38;4146019;28;20402;-67
2022/10/30 05:29:10;;;;;;;13.43;6.93;;;;;;;14.91;78.02;100933.75;4130466;28;20043;-67
2022/10/30 05:31:13;;;;;;;19.10;8.50;;;;;;;14.90;77.95;100936.34;4146913;28;20033;-67
2022/10/30 05:33:36;;;;;;;12.00;6.82;;;;;;;14.84;78.63;100932.81;4147328;28;20084;-67
2022/10/30 05:35:40;;;;;;;18.33;7.43;;;;;;;14.81;78.12;100929.34;4148056;28;20492;-67
2022/10/30 05:37:43;;;;;;;18.38;8.27;;;;;;;14.82;78.43;100923.22;4146888;28;20061;-67
2022/10/30 05:39:47;;;;;;;18.15;8.30;;;;;;;14.80;78.21;100924.97;4146805;28;20038;-67
2022/10/30 05:42:01;;;;;;;15.13;7.55;;;;;;;14.72;78.33;100927.56;4129762;28;20038;-67
2022/10/30 05:44:14;;;;;;;15.82;7.70;;;;;;;14.71;78.23;100930.16;4146375;28;20038;-67
2022/10/30 05:46:30;;;;;;;14.95;6.95;;;;;;;14.67;78.27;100921.41;4163098;28;20037;-67
2022/10/30 05:48:41;;;;;;;17.83;7.60;;;;;;;14.69;77.90;100926.66;4130287;28;20046;-66
2022/10/30 05:50:44;;;;;;;19.17;8.65;;;;;;;14.67;78.29;100921.41;4146700;28;20042;-67
2022/10/30 05:53:04;;;;;;;19.23;7.80;;;;;;;14.65;78.33;100931.00;4146709;28;20460;-67
2022/10/30 05:55:09;;;;;;;17.80;8.32;;;;;;;14.64;78.37;100924.88;4147562;28;20042;-67
2022/10/30 05:57:23;;;;;;;15.05;8.70;;;;;;;14.60;78.03;100928.34;4145807;28;20038;-67
2022/10/30 05:59:28;;;;;;;;;;;;;;;14.44;78.29;100927.38;4146979;28;20046;-66
2022/10/30 06:01:30;;;;;;;18.48;9.10;;;;;;;14.49;78.30;100932.63;4146620;28;19921;-67
2022/10/30 06:03:37;;;;;;;14.05;7.93;;;;;;;14.49;77.65;100937.84;4146072;28;20052;-67
2022/10/30 06:05:43;;;;;;;13.32;7.20;;;;;;;14.49;78.21;100935.25;4145670;28;20041;-67
2022/10/30 06:07:47;;;;;;;16.10;7.82;;;;;;;14.50;77.30;100934.38;4145522;28;20038;-66
2022/10/30 06:09:50;;;;;;;15.55;8.00;;;;;;;14.46;77.54;100937.84;4146426;28;20438;-67
2022/10/30 06:12:12;;;;;;;12.50;7.13;;;;;;;14.42;78.02;100947.41;4146697;28;20042;-67
2022/10/30 06:14:29;;;;;;;15.77;7.80;;;;;;;14.41;78.28;100948.28;4165375;28;20566;-67
2022/10/30 06:16:33;;;;;;;18.80;8.25;;;;;;;14.40;77.84;100948.28;4151144;28;20042;-67
2022/10/30 06:18:59;;;;;;;10.55;6.60;;;;;;;14.40;78.28;100954.38;4148507;28;20046;-67
2022/10/30 06:21:03;;;;;;;20.73;8.13;;;;;;;14.41;78.34;100945.66;4149692;28;20464;-67
2022/10/30 06:23:18;;;;;;;;;;;;;;;14.25;78.45;100951.66;4149903;28;20069;-67
2022/10/30 06:25:44;;;;;;;9.75;6.50;;;;;;;14.28;78.13;100947.31;4150909;28;19921;-67
2022/10/30 06:27:56;;;;;;;16.10;8.10;;;;;;;14.32;78.05;100950.81;4150984;28;20046;-67
2022/10/30 06:29:59;;;;;;;19.17;8.32;;;;;;;14.31;78.60;100949.97;4150829;28;20088;-67
2022/10/30 06:32:02;;;;;;;13.50;7.68;;;;;;;14.34;78.56;100950.81;4150949;28;20092;-66
2022/10/30 06:34:08;;;;;;;12.43;7.38;;;;;;;14.35;78.36;100952.59;4156475;28;20033;-67
2022/10/30 06:36:16;;;;;;;18.35;8.50;;;;;;;14.37;78.11;100953.47;4149547;28;20076;-67
2022/10/30 06:38:19;;;;;;;17.13;7.57;;;;;;;14.38;78.53;100960.44;4149566;28;20038;-67
2022/10/30 06:40:23;;;;;;;14.43;6.93;;;;;;;14.37;78.17;100956.06;4149496;28;20041;-66
2022/10/30 06:42:43;;;;;;;16.40;8.60;;;;;;;14.38;78.50;100960.44;4132324;28;20054;-67
2022/10/30 06:45:01;;;;;;;17.55;7.97;;;;;;;14.38;78.15;100961.31;4149111;28;20050;-67
2022/10/30 06:47:04;;;;;;;18.30;7.82;;;;;;;14.37;77.93;100956.06;4119485;28;20137;-67
2022/10/30 06:49:07;;;;;;;13.55;8.48;;;;;;;14.38;77.93;100952.59;4149311;28;20038;-67
2022/10/30 06:51:14;;;;;;;18.13;7.80;;;;;;;14.40;78.12;100957.00;4149329;28;20377;-67
2022/10/30 06:53:17;;;;;;;13.05;6.85;;;;;;;14.39;78.33;100959.59;4148983;28;20057;-67
2022/10/30 06:55:20;;;;;;;19.88;8.23;;;;;;;14.38;78.10;100957.84;4149289;28;20042;-67
2022/10/30 06:57:34;;;;;;;16.20;8.63;;;;;;;14.38;78.48;100957.84;4149351;28;20042;-67
2022/10/30 06:59:46;;;;;;;13.50;7.13;;;;;;;14.37;78.46;100961.31;4132212;28;20046;-66
2022/10/30 07:02:02;;;;;;;;;;;;;;;14.30;78.90;100956.03;4143502;28;20033;-67
2022/10/30 07:04:19;;;;;;;12.40;7.97;;;;;;;14.37;79.03;100961.31;4148705;28;20392;-67
2022/10/30 07:06:22;;;;;;;19.42;8.73;;;;;;;14.43;78.50;100959.63;4149162;28;20038;-67
2022/10/30 07:08:24;;;;;;;16.63;7.50;;;;;;;14.45;79.03;100970.09;4149033;28;20042;-67
2022/10/30 07:10:27;;;;;;;16.55;7.95;;;;;;;14.48;78.92;100972.72;4148993;28;20116;-67
2022/10/30 07:12:53;;;;;;;12.63;6.72;;;;;;;14.47;78.20;100965.72;4150198;28;20073;-66
2022/10/30 07:15:14;;;;;;;16.67;7.80;;;;;;;14.49;78.55;100964.88;4149277;28;20038;-66
2022/10/30 07:17:56;;;;;;;11.18;7.18;;;;;;;14.50;79.04;100960.56;4149295;28;20034;-67
2022/10/30 07:20:00;;;;;;;11.05;7.43;;;;;;;14.50;79.24;100965.78;4147826;28;20158;-67
2022/10/30 07:22:03;;;;;;;13.57;6.47;;;;;;;14.52;79.74;100964.03;4132395;28;20050;-67
2022/10/30 07:24:08;;;;;;;;;;;;;;;14.43;79.55;100970.09;4148617;28;20287;-67
2022/10/30 07:26:32;;;;;;;14.25;7.38;;;;;;;14.45;79.25;100968.34;4149992;28;19928;-67
2022/10/30 07:28:41;;;;;;;12.20;6.85;;;;;;;14.51;79.81;100975.34;4147835;28;20052;-67
2022/10/30 07:31:19;;;;;;;14.02;7.43;;;;;;;14.58;79.15;100971.91;4134407;28;20050;-67
2022/10/30 07:34:03;;;;;;;16.02;7.10;;;;;;;14.63;79.52;100975.47;4149228;28;20045;-66
2022/10/30 07:36:24;;;;;;;17.35;7.35;;;;;;;14.66;79.50;100975.50;4148674;28;20091;-66
2022/10/30 07:38:37;;;;;;;16.23;6.57;;;;;;;14.66;79.23;100975.50;4148668;28;20646;-67
2022/10/30 07:40:56;;;;;;;12.55;6.20;;;;;;;14.65;79.19;100978.09;4147498;28;20030;-67
2022/10/30 07:43:19;;;;;;;13.40;7.03;;;;;;;14.70;79.12;100976.38;4143360;28;20058;-67
2022/10/30 07:45:33;;;;;;;11.70;7.18;;;;;;;14.74;78.98;100979.91;4164869;28;20056;-67
2022/10/30 07:47:55;;;;;;;16.20;7.40;;;;;;;14.74;79.30;100985.13;4149722;28;20045;-67
2022/10/30 07:50:29;;;;;;;10.35;6.40;;;;;;;14.77;79.12;100985.16;4144284;28;20038;-67
2022/10/30 07:52:33;;;;;;;13.63;7.72;;;;;;;14.78;79.42;100990.38;4148410;28;20324;-67
2022/10/30 07:54:36;;;;;;;15.05;7.00;;;;;;;14.87;78.52;100980.84;4149218;28;20555;-67
2022/10/30 07:56:58;;;;;;;15.93;6.63;;;;;;;14.89;79.42;100982.56;4125219;28;20048;-67
2022/10/30 07:59:27;;;;;;;17.50;7.18;;;;;;;14.94;78.96;100983.50;4149290;28;20046;-67
2022/10/30 08:01:53;;;;;;;12.48;6.32;;;;;;;14.98;79.06;100982.63;4149080;28;20448;-67
2022/10/30 08:04:03;;;;;;;15.00;8.07;;;;;;;15.01;78.30;100972.19;4147937;28;20042;-67
2022/10/30 08:06:08;;;;;;;14.88;6.70;;;;;;;15.07;78.44;100986.16;4148230;28;20045;-67
2022/10/30 08:08:16;;;;;;;17.95;7.32;;;;;;;15.09;78.06;100982.69;4148212;28;20041;-67
2022/10/30 08:10:18;;;;;;;10.48;6.15;;;;;;;15.09;78.42;100977.44;4147277;28;20037;-67
2022/10/30 08:12:21;;;;;;;18.58;7.50;;;;;;;15.13;78.61;100978.34;4131681;28;20093;-67
2022/10/30 08:14:24;;;;;;;11.52;6.35;;;;;;;15.15;78.46;100982.69;4146580;28;20044;-67
2022/10/30 08:16:27;;;;;;;14.38;6.60;;;;;;;15.06;78.28;100981.81;4156126;28;20034;-67
2022/10/30 08:18:32;;;;;;;19.42;7.07;;;;;;;15.01;78.86;100987.88;4148007;28;20045;-67
2022/10/30 08:20:35;;;;;;;16.80;8.18;;;;;;;15.05;78.64;100993.13;4147937;28;20042;-67
2022/10/30 08:22:45;;;;;;;12.65;6.65;;;;;;;15.10;79.08;100988.78;4148173;28;20574;-67
2022/10/30 08:24:49;;;;;;;16.63;7.07;;;;;;;15.07;78.59;100988.75;4147601;28;20415;-67
2022/10/30 08:26:52;;;;;;;17.13;7.85;;;;;;;15.10;78.86;100994.00;4164390;28;20237;-67
2022/10/30 08:28:57;;;;;;;14.95;7.85;;;;;;;15.09;78.95;100994.91;4131080;28;20042;-67
2022/10/30 08:31:02;;;;;;;13.75;6.45;;;;;;;15.13;79.20;100992.28;4147663;28;20038;-67
2022/10/30 08:33:25;;;;;;;13.00;6.43;;;;;;;15.15;79.12;100994.91;4147562;28;20415;-67
2022/10/30 08:35:31;;;;;;;18.73;7.97;;;;;;;15.25;78.91;100987.97;4147122;28;20042;-67
2022/10/30 08:37:34;;;;;;;20.50;7.15;;;;;;;15.33;78.66;100991.47;4147532;28;20049;-67
2022/10/30 08:39:39;;;;;;;17.70;7.40;;;;;;;15.35;78.56;100995.88;4147673;28;20041;-67
2022/10/30 08:41:59;;;;;;;16.70;7.40;;;;;;;15.39;77.87;100986.28;4147659;28;20042;-67
2022/10/30 08:44:06;;;;;;;22.65;7.82;;;;;;;15.44;77.84;100984.53;4147175;28;20058;-67
2022/10/30 08:46:29;;;;;;;12.52;6.15;;;;;;;15.50;77.77;100976.69;4146750;28;20057;-67
2022/10/30 08:48:32;;;;;;;14.02;6.50;;;;;;;15.58;77.72;100984.59;4147457;28;20432;-67
2022/10/30 08:50:36;;;;;;;13.93;6.03;;;;;;;15.68;77.48;100983.72;4147422;28;20121;-67
2022/10/30 08:52:39;;;;;;;13.83;6.60;;;;;;;15.83;77.01;100984.66;4131200;28;20405;-67
2022/10/30 08:54:43;;;;;;;14.10;6.85;;;;;;;15.87;76.73;100981.13;4146276;28;20045;-67
2022/10/30 08:56:46;;;;;;;14.98;5.75;;;;;;;15.95;76.32;100974.16;4147291;28;20040;-67
2022/10/30 08:58:50;;;;;;;12.37;6.03;;;;;;;15.96;76.95;100981.16;4131212;28;20516;-67
2022/10/30 09:00:53;;;;;;;13.23;5.57;;;;;;;16.06;76.63;100968.91;4147364;28;20046;-67
2022/10/30 09:03:41;;;;;;;21.35;6.25;;;;;;;16.15;76.54;100961.06;4135554;28;20044;-67
2022/10/30 09:06:10;;;;;;;15.23;6.82;;;;;;;16.24;76.05;100962.78;4158092;28;20041;-67
2022/10/30 09:08:51;;;;;;;22.35;7.72;;;;;;;16.30;75.50;100965.41;4134498;28;20066;-67
2022/10/30 09:11:09;;;;;;;13.82;6.22;;;;;;;16.31;75.64;100968.88;4147187;28;20120;-67
2022/10/30 09:13:12;;;;;;;19.17;6.45;;;;;;;16.36;75.39;100973.25;4146994;28;20065;-67
2022/10/30 09:15:15;;;;;;;14.15;6.10;;;;;;;16.50;74.94;100959.22;4147079;28;20089;-67
2022/10/30 09:17:27;;;;;;;19.15;7.22;;;;;;;16.69;74.65;100963.56;4147151;28;20423;-67
2022/10/30 09:19:30;;;;;;;12.48;5.93;;;;;;;16.63;75.04;100974.09;4146344;28;20048;-67
2022/10/30 09:21:33;;;;;;;11.25;5.95;;;;;;;16.71;74.63;100966.19;4147125;28;20037;-67
2022/10/30 09:23:39;;;;;;;16.65;5.82;;;;;;;16.77;74.04;100958.28;4146764;28;20034;-67
2022/10/30 09:26:18;;;;;;;13.70;6.05;;;;;;;16.85;74.18;100969.66;4125308;28;20053;-66
2022/10/30 09:28:42;;;;;;;13.27;6.57;;;;;;;16.88;74.25;100968.78;4123900;28;20497;-67
2022/10/30 09:31:04;;;;;;;17.70;6.97;;;;;;;17.07;73.22;100970.47;4147990;28;20042;-67
2022/10/30 09:33:11;;;;;;;10.63;5.22;;;;;;;17.16;73.13;100966.06;4149242;28;20057;-67
2022/10/30 09:35:32;;;;;;;11.90;5.88;;;;;;;17.24;73.32;100961.63;4148110;28;20038;-67
2022/10/30 09:37:35;;;;;;;12.20;5.60;;;;;;;17.32;73.66;100967.72;4147906;28;20049;-67
2022/10/30 09:39:41;;;;;;;16.45;5.97;;;;;;;17.36;73.01;100960.69;4146833;28;20527;-67
2022/10/30 09:42:12;;;;;;;15.55;6.22;;;;;;;17.52;72.69;100964.97;4146839;28;20038;-67
2022/10/30 09:44:29;;;;;;;11.73;5.70;;;;;;;17.63;72.06;100964.91;4146496;28;20506;-67
2022/10/30 09:46:45;;;;;;;13.38;5.93;;;;;;;17.70;72.05;100961.34;4148035;28;20045;-67
2022/10/30 09:49:05;;;;;;;18.65;5.82;;;;;;;17.85;71.45;100956.84;4146006;28;20083;-67
2022/10/30 09:51:25;;;;;;;13.02;4.88;;;;;;;17.91;71.17;100965.59;4146589;28;20577;-67
2022/10/30 09:53:37;;;;;;;12.05;5.03;;;;;;;17.95;70.69;100967.31;4154640;28;20045;-67